createdAt,value
2022-11-24T00:02:20.062Z,17.13
2022-11-24T00:04:46.829Z,14.70
2022-11-24T00:07:13.748Z,6.68
2022-11-24T00:09:40.506Z,8.10
2022-11-24T00:12:07.279Z,5.45
2022-11-24T00:14:34.117Z,7.45
2022-11-24T00:17:01.126Z,8.50
2022-11-24T00:19:27.817Z,11.52
2022-11-24T00:21:54.631Z,6.50
2022-11-24T00:24:21.399Z,7.57
2022-11-24T00:26:48.135Z,11.80
2022-11-24T00:29:14.973Z,10.85
2022-11-24T00:31:42.733Z,12.68
2022-11-24T00:34:13.608Z,6.15
2022-11-24T00:36:40.600Z,16.92
2022-11-24T00:39:10.425Z,9.70
2022-11-24T00:41:37.165Z,14.68
2022-11-24T00:44:04.177Z,14.38
2022-11-24T00:46:30.945Z,13.05
2022-11-24T00:48:57.954Z,17.75
2022-11-24T00:51:27.076Z,8.60
2022-11-24T00:53:55.451Z,17.33
2022-11-24T00:56:22.131Z,13.25
2022-11-24T00:58:49.013Z,7.72
2022-11-24T01:01:17.641Z,12.68
2022-11-24T01:03:44.672Z,11.95
2022-11-24T01:06:18.173Z,8.50
2022-11-24T01:08:45.309Z,13.73
2022-11-24T01:12:01.574Z,11.48
2022-11-24T01:14:28.579Z,12.68
2022-11-24T01:16:55.381Z,11.43
2022-11-24T01:19:22.370Z,10.45
2022-11-24T01:21:49.253Z,11.20
2022-11-24T01:24:16.027Z,5.30
2022-11-24T01:26:42.776Z,13.80
2022-11-24T01:29:10.089Z,15.10
2022-11-24T01:31:37.115Z,7.03
2022-11-24T01:34:03.996Z,8.95
2022-11-24T01:36:30.746Z,6.80
2022-11-24T01:38:57.462Z,6.25
2022-11-24T01:41:25.294Z,11.18
2022-11-24T01:43:53.512Z,9.70
2022-11-24T01:46:29.399Z,11.02
2022-11-24T01:49:14.844Z,8.95
2022-11-24T01:51:57.986Z,10.10
2022-11-24T01:54:32.479Z,9.88
2022-11-24T01:57:02.599Z,10.30
2022-11-24T01:59:29.376Z,7.03
2022-11-24T02:01:56.292Z,11.88
2022-11-24T02:04:25.991Z,11.98
2022-11-24T02:06:52.689Z,3.58
2022-11-24T02:09:27.938Z,11.40
2022-11-24T02:11:55.159Z,10.80
2022-11-24T02:14:22.290Z,5.03
2022-11-24T02:16:50.068Z,9.93
2022-11-24T02:19:39.747Z,5.47
2022-11-24T02:22:22.900Z,9.48
2022-11-24T02:24:55.156Z,11.02
2022-11-24T02:27:21.970Z,5.68
2022-11-24T02:29:48.704Z,7.55
2022-11-24T02:32:15.401Z,9.65
2022-11-24T02:34:42.095Z,14.15
2022-11-24T02:37:08.900Z,4.40
2022-11-24T02:39:35.655Z,13.07
2022-11-24T02:42:05.427Z,7.43
2022-11-24T02:44:35.135Z,2.97
2022-11-24T02:47:06.919Z,7.35
2022-11-24T02:49:33.826Z,9.27
2022-11-24T02:52:00.760Z,7.30
2022-11-24T02:54:27.534Z,9.98
2022-11-24T02:56:54.324Z,10.05
2022-11-24T02:59:21.044Z,9.93
2022-11-24T03:01:47.762Z,15.85
2022-11-24T03:04:14.485Z,17.02
2022-11-24T03:06:41.298Z,12.93
2022-11-24T03:09:08.044Z,11.15
2022-11-24T03:11:34.788Z,14.00
2022-11-24T03:14:01.539Z,10.82
2022-11-24T03:16:28.233Z,9.65
2022-11-24T03:18:55.055Z,15.95
2022-11-24T03:21:21.752Z,11.43
2022-11-24T03:23:48.470Z,22.02
2022-11-24T03:26:17.605Z,14.13
2022-11-24T03:28:44.395Z,15.95
2022-11-24T03:31:11.296Z,17.73
2022-11-24T03:33:38.607Z,18.38
2022-11-24T03:36:05.735Z,7.55
2022-11-24T03:38:32.564Z,10.52
2022-11-24T03:40:59.253Z,9.38
2022-11-24T03:43:25.997Z,12.25
2022-11-24T03:45:52.733Z,19.15
2022-11-24T03:48:21.288Z,26.77
2022-11-24T03:51:00.918Z,14.25
2022-11-24T03:53:28.377Z,11.90
2022-11-24T03:55:55.101Z,20.77
2022-11-24T03:58:22.110Z,15.40
2022-11-24T04:00:49.387Z,17.45
2022-11-24T04:03:16.421Z,16.88
2022-11-24T04:05:43.159Z,14.38
2022-11-24T04:08:09.889Z,19.25
2022-11-24T04:10:37.097Z,10.15
2022-11-24T04:13:04.642Z,15.65
2022-11-24T04:15:31.340Z,17.58
2022-11-24T04:17:58.120Z,10.05
2022-11-24T04:20:25.075Z,13.57
2022-11-24T04:22:52.064Z,15.15
2022-11-24T04:25:18.810Z,16.38
2022-11-24T04:27:45.919Z,16.02
2022-11-24T04:30:12.795Z,12.25
2022-11-24T04:32:39.461Z,20.73
2022-11-24T04:35:06.593Z,14.30
2022-11-24T04:37:34.370Z,13.75
2022-11-24T04:40:01.031Z,18.55
2022-11-24T04:42:27.775Z,25.33
2022-11-24T04:44:54.448Z,22.42
2022-11-24T04:47:22.072Z,24.48
2022-11-24T04:49:49.159Z,14.52
2022-11-24T04:52:17.103Z,17.92
2022-11-24T04:54:43.925Z,18.60
2022-11-24T04:57:25.408Z,19.83
2022-11-24T04:59:52.630Z,20.48
2022-11-24T05:02:19.511Z,26.30
2022-11-24T05:04:46.402Z,17.20
2022-11-24T05:07:18.399Z,16.40
2022-11-24T05:10:05.344Z,17.83
2022-11-24T05:12:32.171Z,13.70
2022-11-24T05:14:59.835Z,19.27
2022-11-24T05:17:30.893Z,26.35
2022-11-24T05:19:57.926Z,19.48
2022-11-24T05:22:24.909Z,18.98
2022-11-24T05:24:51.624Z,22.70
2022-11-24T05:27:18.349Z,17.50
2022-11-24T05:29:45.096Z,22.90
2022-11-24T05:32:11.849Z,13.73
2022-11-24T05:34:38.534Z,13.88
2022-11-24T05:37:05.421Z,14.50
2022-11-24T05:39:35.865Z,20.98
2022-11-24T05:42:21.825Z,20.58
2022-11-24T05:44:48.538Z,14.30
2022-11-24T05:47:15.207Z,21.77
2022-11-24T05:49:41.960Z,23.65
2022-11-24T05:52:08.779Z,24.90
2022-11-24T05:54:35.800Z,19.63
2022-11-24T05:57:02.649Z,13.60
2022-11-24T05:59:29.320Z,21.13
2022-11-24T06:01:56.100Z,20.30
2022-11-24T06:04:22.888Z,12.90
2022-11-24T06:06:49.583Z,22.20
2022-11-24T06:09:16.362Z,22.48
2022-11-24T06:11:43.289Z,22.55
2022-11-24T06:14:11.446Z,22.92
2022-11-24T06:16:38.624Z,15.65
2022-11-24T06:19:05.381Z,20.25
2022-11-24T06:21:32.101Z,27.85
2022-11-24T06:23:58.917Z,31.83
2022-11-24T06:26:25.630Z,30.63
2022-11-24T06:28:52.350Z,22.77
2022-11-24T06:31:19.158Z,38.80
2022-11-24T06:33:46.040Z,25.13
2022-11-24T06:36:13.589Z,22.80
2022-11-24T06:38:40.235Z,17.30
2022-11-24T06:41:08.496Z,15.70
2022-11-24T06:43:35.372Z,21.63
2022-11-24T06:46:02.377Z,23.67
2022-11-24T06:48:29.285Z,35.28
2022-11-24T06:51:03.699Z,25.88
2022-11-24T06:53:37.709Z,30.73
2022-11-24T06:58:31.573Z,20.10
2022-11-24T07:00:58.297Z,27.85
2022-11-24T07:03:25.121Z,22.10
2022-11-24T07:05:58.313Z,19.15
2022-11-24T07:08:25.295Z,16.70
2022-11-24T07:10:52.724Z,21.17
2022-11-24T07:13:21.368Z,22.73
2022-11-24T07:15:48.114Z,23.60
2022-11-24T07:18:14.838Z,16.05
2022-11-24T07:20:41.567Z,27.52
2022-11-24T07:23:09.120Z,21.55
2022-11-24T07:25:35.844Z,15.93
2022-11-24T07:28:02.591Z,22.83
2022-11-24T07:30:29.413Z,25.02
2022-11-24T07:32:59.837Z,18.15
2022-11-24T07:35:26.711Z,22.90
2022-11-24T07:37:59.481Z,18.83
2022-11-24T07:40:26.988Z,25.60
2022-11-24T07:42:54.175Z,23.33
2022-11-24T07:45:21.002Z,30.50
2022-11-24T07:47:47.896Z,22.65
2022-11-24T07:50:14.832Z,27.38
2022-11-24T07:52:41.530Z,26.10
2022-11-24T07:55:08.814Z,22.95
2022-11-24T07:57:35.701Z,24.90
2022-11-24T08:00:03.084Z,23.65
2022-11-24T08:02:29.752Z,26.13
2022-11-24T08:04:56.484Z,23.48
2022-11-24T08:07:23.254Z,29.10
2022-11-24T08:09:50.491Z,28.65
2022-11-24T08:12:21.440Z,28.75
2022-11-24T08:14:51.292Z,36.75
2022-11-24T08:17:18.398Z,24.42
2022-11-24T08:19:45.241Z,20.52
2022-11-24T08:22:12.033Z,27.58
2022-11-24T08:24:38.920Z,31.80
2022-11-24T08:27:05.652Z,30.60
2022-11-24T08:29:32.409Z,28.67
2022-11-24T08:31:59.210Z,35.70
2022-11-24T08:34:28.297Z,33.20
2022-11-24T08:36:55.506Z,37.78
2022-11-24T08:39:22.352Z,26.50
2022-11-24T08:41:49.128Z,19.30
2022-11-24T08:44:18.122Z,25.98
2022-11-24T08:46:45.335Z,30.60
2022-11-24T08:49:14.165Z,23.48
2022-11-24T08:51:41.178Z,31.02
2022-11-24T08:54:09.144Z,29.00
2022-11-24T08:56:36.029Z,32.70
2022-11-24T08:59:02.957Z,30.65
2022-11-24T09:01:29.893Z,31.90
2022-11-24T09:03:56.753Z,25.83
2022-11-24T09:06:25.570Z,26.48
2022-11-24T09:08:55.818Z,32.38
2022-11-24T09:11:22.667Z,28.85
2022-11-24T09:13:49.601Z,31.60
2022-11-24T09:16:18.087Z,38.30
2022-11-24T09:18:45.155Z,31.13
2022-11-24T09:21:17.289Z,33.60
2022-11-24T09:23:44.249Z,38.63
2022-11-24T09:26:18.620Z,29.50
2022-11-24T09:28:45.861Z,28.50
2022-11-24T09:31:13.483Z,35.53
2022-11-24T09:33:43.377Z,34.22
2022-11-24T09:36:10.123Z,37.13
2022-11-24T09:38:37.043Z,36.25
2022-11-24T09:41:21.980Z,43.53
2022-11-24T09:44:00.157Z,27.67
2022-11-24T09:46:28.391Z,29.20
2022-11-24T09:48:56.723Z,32.45
2022-11-24T09:51:26.493Z,29.45
2022-11-24T09:54:00.585Z,36.88
2022-11-24T09:59:17.224Z,36.83
2022-11-24T10:01:46.998Z,34.47
2022-11-24T10:04:22.922Z,30.73
2022-11-24T10:07:01.607Z,29.15
2022-11-24T10:09:56.505Z,42.17
2022-11-24T10:13:01.912Z,33.55
2022-11-24T10:15:47.458Z,38.80
2022-11-24T10:18:41.905Z,45.60
2022-11-24T10:21:51.867Z,49.65
2022-11-24T10:24:22.201Z,35.58
2022-11-24T10:27:02.388Z,36.63
2022-11-24T10:29:33.242Z,36.03
2022-11-24T10:32:00.169Z,36.42
2022-11-24T10:34:35.727Z,34.83
2022-11-24T10:37:05.213Z,40.40
2022-11-24T10:39:42.110Z,32.00
2022-11-24T10:42:24.271Z,26.58
2022-11-24T10:45:00.257Z,31.42
2022-11-24T10:47:27.299Z,41.55
2022-11-24T10:50:05.226Z,39.17
2022-11-24T10:52:38.882Z,40.33
2022-11-24T10:55:08.597Z,41.97
2022-11-24T10:57:39.776Z,42.42
2022-11-24T11:00:18.544Z,34.60
2022-11-24T11:02:45.891Z,32.65
2022-11-24T11:05:31.503Z,52.40
2022-11-24T11:08:19.484Z,36.75
2022-11-24T11:10:47.335Z,41.38
2022-11-24T11:13:24.313Z,42.50
2022-11-24T11:15:51.177Z,30.77
2022-11-24T11:18:18.773Z,38.70
2022-11-24T11:20:55.848Z,50.55
2022-11-24T11:23:28.095Z,38.53
2022-11-24T11:26:18.659Z,37.15
2022-11-24T11:28:57.197Z,37.03
2022-11-24T11:31:25.177Z,42.08
2022-11-24T11:34:06.450Z,40.53
2022-11-24T11:39:36.597Z,31.48
2022-11-24T11:45:43.206Z,24.77
2022-11-24T11:48:42.245Z,25.38
2022-11-24T11:51:47.048Z,31.98
2022-11-24T11:54:26.950Z,29.20
2022-11-24T11:57:10.838Z,34.33
2022-11-24T12:00:16.432Z,21.70
2022-11-24T12:02:53.420Z,32.35
2022-11-24T12:06:02.266Z,37.83
2022-11-24T12:09:03.190Z,33.72
2022-11-24T12:11:24.618Z,28.13
2022-11-24T12:14:20.755Z,35.35
2022-11-24T12:17:05.279Z,29.55
2022-11-24T12:20:03.725Z,24.80
2022-11-24T12:23:01.393Z,29.63
2022-11-24T12:25:49.723Z,18.02
2022-11-24T12:28:44.433Z,27.13
2022-11-24T12:31:14.402Z,29.65
2022-11-24T12:34:15.416Z,27.02
2022-11-24T12:36:48.073Z,27.95
2022-11-24T12:39:26.045Z,29.70
2022-11-24T12:42:01.704Z,26.00
2022-11-24T12:44:47.529Z,28.45
2022-11-24T12:47:17.843Z,26.95
2022-11-24T12:49:53.800Z,27.77
2022-11-24T12:52:29.775Z,35.92
2022-11-24T12:54:56.497Z,27.25
2022-11-24T12:58:17.413Z,24.40
2022-11-24T13:01:16.777Z,24.05
2022-11-24T13:03:58.580Z,23.42
2022-11-24T13:06:53.007Z,23.64
2022-11-24T13:09:20.061Z,28.10
2022-11-24T13:11:56.750Z,29.48
2022-11-24T13:14:36.437Z,24.45
2022-11-24T13:19:53.852Z,28.42
2022-11-24T13:22:25.118Z,26.30
2022-11-24T13:25:29.733Z,27.70
2022-11-24T13:28:00.229Z,27.23
2022-11-24T13:30:36.095Z,22.38
2022-11-24T13:33:03.163Z,23.52
2022-11-24T13:35:30.599Z,27.85
2022-11-24T13:37:57.686Z,26.55
2022-11-24T13:40:26.432Z,27.30
2022-11-24T13:43:01.362Z,28.48
2022-11-24T13:45:46.809Z,25.85
2022-11-24T13:48:20.768Z,31.60
2022-11-24T13:50:51.314Z,22.40
2022-11-24T13:53:34.884Z,24.83
2022-11-24T13:56:07.339Z,30.57
2022-11-24T13:58:37.691Z,31.52
2022-11-24T14:01:28.356Z,27.27
2022-11-24T14:06:52.597Z,30.90
2022-11-24T14:09:32.563Z,30.35
2022-11-24T14:12:12.669Z,23.55
2022-11-24T14:14:39.908Z,39.67
2022-11-24T14:17:23.164Z,26.50
2022-11-24T14:19:55.050Z,23.42
2022-11-24T14:22:26.831Z,29.70
2022-11-24T14:24:58.805Z,28.65
2022-11-24T14:27:31.515Z,25.13
2022-11-24T14:29:59.833Z,30.52
2022-11-24T14:32:26.647Z,30.05
2022-11-24T14:34:54.496Z,40.47
2022-11-24T14:37:21.448Z,27.88
2022-11-24T14:39:48.131Z,27.58
2022-11-24T14:42:30.220Z,24.50
2022-11-24T14:45:00.330Z,35.25
2022-11-24T14:47:36.397Z,28.55
2022-11-24T14:50:09.834Z,29.23
2022-11-24T14:52:36.827Z,22.85
2022-11-24T14:55:21.923Z,24.42
2022-11-24T14:57:49.817Z,29.90
2022-11-24T15:00:21.138Z,25.77
2022-11-24T15:03:17.558Z,28.63
2022-11-24T15:05:58.404Z,22.73
2022-11-24T15:08:31.682Z,20.25
2022-11-24T15:11:03.413Z,18.58
2022-11-24T15:13:35.257Z,27.08
2022-11-24T15:16:03.889Z,27.92
2022-11-24T15:18:42.092Z,27.73
2022-11-24T15:21:11.751Z,25.65
2022-11-24T15:23:42.955Z,19.23
2022-11-24T15:26:12.888Z,23.02
2022-11-24T15:28:40.113Z,20.25
2022-11-24T15:31:11.088Z,20.70
2022-11-24T15:33:38.202Z,24.77
2022-11-24T15:36:05.268Z,26.33
2022-11-24T15:38:32.456Z,23.75
2022-11-24T15:41:00.264Z,26.55
2022-11-24T15:43:39.527Z,18.40
2022-11-24T15:46:06.885Z,22.27
2022-11-24T15:48:33.742Z,15.75
2022-11-24T15:51:02.461Z,18.45
2022-11-24T15:53:40.572Z,24.95
2022-11-24T15:56:10.802Z,21.83
2022-11-24T15:58:37.575Z,28.67
2022-11-24T16:01:04.387Z,18.90
2022-11-24T16:03:48.208Z,19.67
2022-11-24T16:06:23.763Z,19.40
2022-11-24T16:08:52.085Z,19.42
2022-11-24T16:11:18.791Z,16.77
2022-11-24T16:13:51.554Z,18.80
2022-11-24T16:18:46.405Z,12.60
2022-11-24T16:21:14.816Z,16.67
2022-11-24T16:23:41.589Z,8.93
2022-11-24T16:26:08.380Z,15.30
2022-11-24T16:28:35.081Z,11.90
2022-11-24T16:31:01.783Z,9.00
2022-11-24T16:33:29.690Z,8.90
2022-11-24T16:35:56.401Z,4.22
2022-11-24T16:38:23.148Z,9.65
2022-11-24T16:40:59.178Z,7.50
2022-11-24T16:43:25.893Z,8.45
2022-11-24T16:46:06.092Z,8.55
2022-11-24T16:48:36.140Z,9.82
2022-11-24T16:51:10.018Z,10.38
2022-11-24T16:53:37.139Z,9.82
2022-11-24T16:56:03.979Z,8.90
2022-11-24T16:58:31.776Z,6.30
2022-11-24T17:01:10.637Z,7.10
2022-11-24T17:03:37.654Z,4.38
2022-11-24T17:06:05.642Z,2.92
2022-11-24T17:08:33.403Z,2.40
2022-11-24T17:11:10.494Z,3.60
2022-11-24T17:13:37.443Z,6.50
2022-11-24T17:16:07.105Z,3.58
2022-11-24T17:18:33.988Z,10.18
2022-11-24T17:21:06.030Z,5.78
2022-11-24T17:23:36.172Z,9.48
2022-11-24T17:26:03.792Z,7.93
2022-11-24T17:28:30.551Z,11.77
2022-11-24T17:30:57.404Z,6.80
2022-11-24T17:33:24.217Z,16.70
2022-11-24T17:35:51.193Z,10.75
2022-11-24T17:38:17.890Z,13.20
2022-11-24T17:40:48.292Z,15.43
2022-11-24T17:43:15.018Z,19.20
2022-11-24T17:45:41.828Z,15.90
2022-11-24T17:48:09.527Z,17.33
2022-11-24T17:50:36.322Z,9.77
2022-11-24T17:53:03.090Z,13.27
2022-11-24T17:55:29.895Z,19.83
2022-11-24T17:57:57.090Z,15.52
2022-11-24T18:00:24.005Z,13.02
2022-11-24T18:02:50.763Z,20.33
2022-11-24T18:05:17.550Z,15.85
2022-11-24T18:07:44.452Z,21.90
2022-11-24T18:10:11.514Z,25.45
2022-11-24T18:12:40.262Z,16.77
2022-11-24T18:15:07.716Z,18.52
2022-11-24T18:17:34.684Z,17.17
2022-11-24T18:20:01.701Z,15.90
2022-11-24T18:23:04.618Z,25.58
2022-11-24T18:25:15.107Z,22.35
2022-11-24T18:27:41.861Z,31.70
2022-11-24T18:30:08.934Z,30.05
2022-11-24T18:32:35.851Z,20.67
2022-11-24T18:35:02.899Z,28.48
2022-11-24T18:37:33.174Z,21.45
2022-11-24T18:40:00.240Z,28.83
2022-11-24T18:42:28.158Z,19.25
2022-11-24T18:44:56.662Z,32.38
2022-11-24T18:47:23.467Z,14.48
2022-11-24T18:49:50.223Z,27.15
2022-11-24T18:52:16.931Z,30.40
2022-11-24T18:54:43.583Z,17.60
2022-11-24T18:57:10.434Z,27.70
2022-11-24T18:59:37.226Z,28.70
2022-11-24T19:02:03.987Z,24.75
2022-11-24T19:04:30.837Z,20.52
2022-11-24T19:06:57.495Z,22.33
2022-11-24T19:09:25.471Z,27.92
2022-11-24T19:11:53.578Z,31.73
2022-11-24T19:14:20.440Z,18.55
2022-11-24T19:16:48.086Z,29.00
2022-11-24T19:19:15.114Z,22.88
2022-11-24T19:21:41.932Z,40.90
2022-11-24T19:24:13.157Z,26.33
2022-11-24T19:26:40.039Z,43.25
2022-11-24T19:29:07.071Z,22.13
2022-11-24T19:31:34.268Z,31.27
2022-11-24T19:34:02.974Z,31.15
2022-11-24T19:36:30.011Z,34.60
2022-11-24T19:38:57.133Z,32.08
2022-11-24T19:41:28.526Z,28.75
2022-11-24T19:43:55.345Z,38.22
2022-11-24T19:46:22.582Z,24.77
2022-11-24T19:48:50.407Z,33.25
2022-11-24T19:51:37.111Z,21.80
2022-11-24T19:54:04.590Z,27.13
2022-11-24T19:56:34.066Z,26.70
2022-11-24T19:59:01.057Z,24.75
2022-11-24T20:01:29.276Z,24.65
2022-11-24T20:04:00.645Z,32.17
2022-11-24T20:06:28.947Z,34.83
2022-11-24T20:08:56.890Z,27.25
2022-11-24T20:11:24.915Z,28.38
2022-11-24T20:13:51.783Z,36.03
2022-11-24T20:16:20.201Z,25.05
2022-11-24T20:18:47.684Z,27.23
2022-11-24T20:21:19.111Z,15.88
2022-11-24T20:23:46.923Z,28.00
2022-11-24T20:26:15.561Z,36.88
2022-11-24T20:28:42.443Z,21.75
2022-11-24T20:31:11.235Z,27.65
2022-11-24T20:33:38.401Z,32.33
2022-11-24T20:36:22.018Z,28.58
2022-11-24T20:38:52.010Z,38.45
2022-11-24T20:41:25.879Z,29.90
2022-11-24T20:43:53.133Z,17.23
2022-11-24T20:46:21.687Z,43.58
2022-11-24T20:48:48.488Z,36.38
2022-11-24T20:51:22.835Z,30.42
2022-11-24T20:53:54.257Z,35.40
2022-11-24T20:56:22.721Z,37.28
2022-11-24T20:58:49.480Z,29.95
2022-11-24T21:01:20.669Z,28.73
2022-11-24T21:03:47.933Z,29.20
2022-11-24T21:06:14.944Z,36.42
2022-11-24T21:08:43.750Z,24.77
2022-11-24T21:11:11.891Z,41.35
2022-11-24T21:13:39.352Z,40.90
2022-11-24T21:16:16.333Z,23.70
2022-11-24T21:18:43.610Z,33.80
2022-11-24T21:21:10.646Z,34.63
2022-11-24T21:23:37.358Z,25.33
2022-11-24T21:26:07.405Z,19.73
2022-11-24T21:28:35.784Z,29.10
2022-11-24T21:31:04.642Z,21.27
2022-11-24T21:33:31.462Z,25.13
2022-11-24T21:36:12.558Z,21.17
2022-11-24T21:38:39.256Z,22.10
2022-11-24T21:41:06.923Z,26.20
2022-11-24T21:43:33.920Z,21.67
2022-11-24T21:46:01.837Z,28.75
2022-11-24T21:48:29.503Z,29.80
2022-11-24T21:50:58.146Z,29.17
2022-11-24T21:53:25.330Z,20.42
2022-11-24T21:55:58.966Z,21.98
2022-11-24T21:58:25.863Z,27.15
2022-11-24T22:00:52.753Z,34.15
2022-11-24T22:03:19.884Z,17.10
2022-11-24T22:05:56.713Z,20.70
2022-11-24T22:08:24.105Z,21.55
2022-11-24T22:10:50.931Z,25.35
2022-11-24T22:13:17.693Z,26.48
2022-11-24T22:15:44.676Z,31.17
2022-11-24T22:18:12.180Z,33.88
2022-11-24T22:20:39.181Z,25.70
2022-11-24T22:23:06.091Z,32.00
2022-11-24T22:25:33.599Z,22.15
2022-11-24T22:28:00.413Z,24.13
2022-11-24T22:30:27.207Z,26.33
2022-11-24T22:32:54.503Z,25.35
2022-11-24T22:35:21.597Z,18.95
2022-11-24T22:37:48.439Z,24.70
2022-11-24T22:40:15.273Z,19.67
2022-11-24T22:42:42.130Z,22.13
2022-11-24T22:45:09.462Z,21.63
2022-11-24T22:47:36.131Z,25.30
2022-11-24T22:50:02.883Z,25.40
2022-11-24T22:52:29.655Z,22.15
2022-11-24T22:54:59.387Z,19.60
2022-11-24T22:57:26.245Z,30.10
2022-11-24T22:59:52.921Z,29.25
2022-11-24T23:02:19.664Z,27.23
2022-11-24T23:04:46.377Z,19.70
2022-11-24T23:07:13.177Z,27.92
2022-11-24T23:09:39.889Z,25.23
2022-11-24T23:12:06.807Z,34.47
2022-11-24T23:14:33.669Z,29.98
2022-11-24T23:17:00.733Z,20.38
2022-11-24T23:19:28.036Z,17.58
2022-11-24T23:21:54.722Z,25.95
2022-11-24T23:24:21.432Z,20.83
2022-11-24T23:26:48.245Z,28.50
2022-11-24T23:29:14.939Z,20.77
2022-11-24T23:31:41.740Z,18.90
2022-11-24T23:34:08.576Z,35.63
2022-11-24T23:36:35.346Z,31.17
2022-11-24T23:39:03.695Z,19.67
2022-11-24T23:41:30.740Z,25.13
2022-11-24T23:43:57.621Z,20.92
2022-11-24T23:46:25.111Z,27.17
2022-11-24T23:48:52.825Z,27.38
2022-11-24T23:51:21.917Z,24.40
2022-11-24T23:53:48.852Z,22.35
2022-11-24T23:56:19.254Z,20.92
2022-11-24T23:58:46.059Z,19.95
